PWSweather.com
Personal Weather Stations
Station Observations
79674
AfterstegDE 79674

AfterstegDE 79674

Lat: 47.84344, Lon: 7.92844

Elevation: 809

Station Type: Davis Vantage 2 Aktive

www.wetter-aftersteg.de

High Low Average
Temperature 82.2°F27.9°C 58.8°F14.9°C 69.4°F20.8°C
Dew Point 64.0°F17.8°C 55.0°F12.8°C 58.1°F14.5°C
Winds 4.0 mph 6.4 kmh Calm Calm 1.0 mph W1.6 kmh W
Wind Gusts 6.9 mph11.1 kmh -- --
Humidity 89% 44% 69%
Pressure 30.23 in1023.7 mb 30.16 in1021.3 mb -
Precipitation 0.00 in0.0 mm - -
Hour Temp Dew Point Humidity Winds Wind Gusts Pressure Precip Precip Rate Daily Precip Total
12:02 AM 61.3°F16.3°C 55.8°F13.2°C 82% Calm Calm -- 30.21 in1023.0 mb - 0.00 in0.0 mm 0.00 in0.0 mm
12:07 AM 61.3°F16.3°C 55.8°F13.2°C 82% Calm Calm -- 30.21 in1023.0 mb - 0.00 in0.0 mm 0.00 in0.0 mm
12:12 AM 61.5°F16.4°C 55.9°F13.3°C 82% Calm Calm -- 30.20 in1022.7 mb - 0.00 in0.0 mm 0.00 in0.0 mm
12:17 AM 61.5°F16.4°C 55.9°F13.3°C 82% Calm Calm -- 30.20 in1022.7 mb - 0.00 in0.0 mm 0.00 in0.0 mm
12:22 AM 61.3°F16.3°C 55.8°F13.2°C 82% Calm Calm -- 30.20 in1022.7 mb - 0.00 in0.0 mm 0.00 in0.0 mm
12:27 AM 61.2°F16.2°C 55.6°F13.1°C 82% Calm Calm -- 30.20 in1022.7 mb - 0.00 in0.0 mm 0.00 in0.0 mm
12:32 AM 61.2°F16.2°C 55.6°F13.1°C 82% Calm Calm -- 30.20 in1022.7 mb - 0.00 in0.0 mm 0.00 in0.0 mm
12:37 AM 61.0°F16.1°C 55.4°F13.0°C 82% Calm Calm -- 30.20 in1022.7 mb - 0.00 in0.0 mm 0.00 in0.0 mm
12:42 AM 60.8°F16.0°C 55.6°F13.1°C 83% Calm Calm -- 30.20 in1022.7 mb - 0.00 in0.0 mm 0.00 in0.0 mm
12:47 AM 60.8°F16.0°C 55.6°F13.1°C 83% Calm Calm -- 30.20 in1022.7 mb - 0.00 in0.0 mm 0.00 in0.0 mm
12:52 AM 60.8°F16.0°C 55.6°F13.1°C 83% Calm Calm -- 30.20 in1022.7 mb - 0.00 in0.0 mm 0.00 in0.0 mm
12:57 AM 60.8°F16.0°C 55.6°F13.1°C 83% Calm Calm -- 30.20 in1022.7 mb - 0.00 in0.0 mm 0.00 in0.0 mm
01:02 AM 60.6°F15.9°C 55.4°F13.0°C 83% Calm Calm -- 30.20 in1022.7 mb - 0.00 in0.0 mm 0.00 in0.0 mm
01:07 AM 60.6°F15.9°C 55.4°F13.0°C 83% Calm Calm -- 30.20 in1022.7 mb - 0.00 in0.0 mm 0.00 in0.0 mm
01:12 AM 61.0°F16.1°C 55.8°F13.2°C 83% Calm Calm -- 30.20 in1022.7 mb - 0.00 in0.0 mm 0.00 in0.0 mm
01:17 AM 60.8°F16.0°C 55.6°F13.1°C 83% Calm Calm -- 30.20 in1022.7 mb - 0.00 in0.0 mm 0.00 in0.0 mm
01:22 AM 60.6°F15.9°C 55.4°F13.0°C 83% Calm Calm -- 30.20 in1022.7 mb - 0.00 in0.0 mm 0.00 in0.0 mm
01:27 AM 60.6°F15.9°C 55.4°F13.0°C 83% Calm Calm -- 30.20 in1022.7 mb - 0.00 in0.0 mm 0.00 in0.0 mm
01:32 AM 60.4°F15.8°C 55.6°F13.1°C 84% Calm Calm -- 30.20 in1022.7 mb - 0.00 in0.0 mm 0.00 in0.0 mm
01:37 AM 60.4°F15.8°C 55.2°F12.9°C 83% Calm Calm -- 30.20 in1022.7 mb - 0.00 in0.0 mm 0.00 in0.0 mm
01:42 AM 60.3°F15.7°C 55.4°F13.0°C 84% Calm Calm -- 30.20 in1022.7 mb - 0.00 in0.0 mm 0.00 in0.0 mm
01:47 AM 60.3°F15.7°C 55.0°F12.8°C 83% Calm Calm -- 30.20 in1022.7 mb - 0.00 in0.0 mm 0.00 in0.0 mm
01:52 AM 60.1°F15.6°C 55.2°F12.9°C 84% Calm Calm -- 30.19 in1022.4 mb - 0.00 in0.0 mm 0.00 in0.0 mm
01:57 AM 60.1°F15.6°C 55.2°F12.9°C 84% Calm Calm -- 30.19 in1022.4 mb - 0.00 in0.0 mm 0.00 in0.0 mm
02:02 AM 60.1°F15.6°C 55.2°F12.9°C 84% Calm Calm -- 30.20 in1022.7 mb - 0.00 in0.0 mm 0.00 in0.0 mm
02:07 AM 60.1°F15.6°C 55.6°F13.1°C 85% Calm Calm -- 30.20 in1022.7 mb - 0.00 in0.0 mm 0.00 in0.0 mm
02:12 AM 59.9°F15.5°C 55.4°F13.0°C 85% Calm Calm -- 30.20 in1022.7 mb - 0.00 in0.0 mm 0.00 in0.0 mm
02:17 AM 59.9°F15.5°C 55.4°F13.0°C 85% Calm Calm -- 30.20 in1022.7 mb - 0.00 in0.0 mm 0.00 in0.0 mm
02:22 AM 59.7°F15.4°C 55.2°F12.9°C 85% Calm Calm -- 30.20 in1022.7 mb - 0.00 in0.0 mm 0.00 in0.0 mm
02:27 AM 59.7°F15.4°C 55.2°F12.9°C 85% Calm Calm -- 30.20 in1022.7 mb - 0.00 in0.0 mm 0.00 in0.0 mm
02:32 AM 59.7°F15.4°C 55.6°F13.1°C 86% Calm Calm -- 30.20 in1022.7 mb - 0.00 in0.0 mm 0.00 in0.0 mm
02:37 AM 59.7°F15.4°C 55.6°F13.1°C 86% Calm Calm -- 30.20 in1022.7 mb - 0.00 in0.0 mm 0.00 in0.0 mm
02:42 AM 59.5°F15.3°C 55.4°F13.0°C 86% Calm Calm -- 30.20 in1022.7 mb - 0.00 in0.0 mm 0.00 in0.0 mm
02:47 AM 59.5°F15.3°C 55.4°F13.0°C 86% Calm Calm -- 30.20 in1022.7 mb - 0.00 in0.0 mm 0.00 in0.0 mm
02:52 AM 59.5°F15.3°C 55.4°F13.0°C 86% Calm Calm -- 30.20 in1022.7 mb - 0.00 in0.0 mm 0.00 in0.0 mm
02:57 AM 59.5°F15.3°C 55.4°F13.0°C 86% Calm Calm -- 30.20 in1022.7 mb - 0.00 in0.0 mm 0.00 in0.0 mm
03:02 AM 59.5°F15.3°C 55.4°F13.0°C 86% Calm Calm -- 30.20 in1022.7 mb - 0.00 in0.0 mm 0.00 in0.0 mm
03:07 AM 59.5°F15.3°C 55.4°F13.0°C 86% Calm Calm -- 30.20 in1022.7 mb - 0.00 in0.0 mm 0.00 in0.0 mm
03:12 AM 59.5°F15.3°C 55.4°F13.0°C 86% Calm Calm -- 30.20 in1022.7 mb - 0.00 in0.0 mm 0.00 in0.0 mm
03:17 AM 59.5°F15.3°C 55.4°F13.0°C 86% Calm Calm -- 30.20 in1022.7 mb - 0.00 in0.0 mm 0.00 in0.0 mm
03:22 AM 59.5°F15.3°C 55.4°F13.0°C 86% Calm Calm -- 30.20 in1022.7 mb - 0.00 in0.0 mm 0.00 in0.0 mm
03:27 AM 59.4°F15.2°C 55.2°F12.9°C 86% Calm Calm -- 30.20 in1022.7 mb - 0.00 in0.0 mm 0.00 in0.0 mm
03:32 AM 59.4°F15.2°C 55.2°F12.9°C 86% Calm Calm -- 30.20 in1022.7 mb - 0.00 in0.0 mm 0.00 in0.0 mm
03:37 AM 59.2°F15.1°C 55.4°F13.0°C 87% Calm Calm -- 30.20 in1022.7 mb - 0.00 in0.0 mm 0.00 in0.0 mm
03:42 AM 59.2°F15.1°C 55.4°F13.0°C 87% Calm Calm -- 30.20 in1022.7 mb - 0.00 in0.0 mm 0.00 in0.0 mm
03:47 AM 59.2°F15.1°C 55.4°F13.0°C 87% Calm Calm -- 30.20 in1022.7 mb - 0.00 in0.0 mm 0.00 in0.0 mm
03:52 AM 59.2°F15.1°C 55.4°F13.0°C 87% Calm Calm -- 30.21 in1023.0 mb - 0.00 in0.0 mm 0.00 in0.0 mm
03:57 AM 59.4°F15.2°C 55.4°F13.0°C 87% Calm Calm -- 30.21 in1023.0 mb - 0.00 in0.0 mm 0.00 in0.0 mm
04:02 AM 59.4°F15.2°C 55.4°F13.0°C 87% Calm Calm -- 30.21 in1023.0 mb - 0.00 in0.0 mm 0.00 in0.0 mm
04:07 AM 59.4°F15.2°C 55.4°F13.0°C 87% Calm Calm -- 30.21 in1023.0 mb - 0.00 in0.0 mm 0.00 in0.0 mm
04:12 AM 59.4°F15.2°C 55.4°F13.0°C 87% Calm Calm -- 30.21 in1023.0 mb - 0.00 in0.0 mm 0.00 in0.0 mm
04:17 AM 59.2°F15.1°C 55.4°F13.0°C 87% Calm Calm -- 30.21 in1023.0 mb - 0.00 in0.0 mm 0.00 in0.0 mm
04:22 AM 59.2°F15.1°C 55.6°F13.1°C 88% Calm Calm -- 30.21 in1023.0 mb - 0.00 in0.0 mm 0.00 in0.0 mm
04:27 AM 59.2°F15.1°C 55.6°F13.1°C 88% Calm Calm -- 30.21 in1023.0 mb - 0.00 in0.0 mm 0.00 in0.0 mm
04:32 AM 59.0°F15.0°C 55.4°F13.0°C 88% Calm Calm -- 30.21 in1023.0 mb - 0.00 in0.0 mm 0.00 in0.0 mm
04:37 AM 59.0°F15.0°C 55.4°F13.0°C 88% Calm Calm -- 30.21 in1023.0 mb - 0.00 in0.0 mm 0.00 in0.0 mm
04:42 AM 59.0°F15.0°C 55.4°F13.0°C 88% Calm Calm -- 30.21 in1023.0 mb - 0.00 in0.0 mm 0.00 in0.0 mm
04:47 AM 59.2°F15.1°C 55.6°F13.1°C 88% Calm Calm -- 30.21 in1023.0 mb - 0.00 in0.0 mm 0.00 in0.0 mm
04:52 AM 59.0°F15.0°C 55.4°F13.0°C 88% Calm Calm -- 30.21 in1023.0 mb - 0.00 in0.0 mm 0.00 in0.0 mm
04:57 AM 58.8°F14.9°C 55.2°F12.9°C 88% Calm Calm -- 30.21 in1023.0 mb - 0.00 in0.0 mm 0.00 in0.0 mm
05:02 AM 58.8°F14.9°C 55.2°F12.9°C 88% Calm Calm -- 30.21 in1023.0 mb - 0.00 in0.0 mm 0.00 in0.0 mm
05:07 AM 58.8°F14.9°C 55.2°F12.9°C 88% Calm Calm -- 30.21 in1023.0 mb - 0.00 in0.0 mm 0.00 in0.0 mm
05:12 AM 58.8°F14.9°C 55.2°F12.9°C 88% Calm Calm -- 30.21 in1023.0 mb - 0.00 in0.0 mm 0.00 in0.0 mm
05:17 AM 58.8°F14.9°C 55.2°F12.9°C 88% Calm Calm -- 30.21 in1023.0 mb - 0.00 in0.0 mm 0.00 in0.0 mm
05:22 AM 58.8°F14.9°C 55.2°F12.9°C 88% Calm Calm -- 30.22 in1023.4 mb - 0.00 in0.0 mm 0.00 in0.0 mm
05:27 AM 58.8°F14.9°C 55.2°F12.9°C 88% Calm Calm -- 30.22 in1023.4 mb - 0.00 in0.0 mm 0.00 in0.0 mm
05:32 AM 58.8°F14.9°C 55.6°F13.1°C 89% Calm Calm -- 30.22 in1023.4 mb - 0.00 in0.0 mm 0.00 in0.0 mm
05:37 AM 58.8°F14.9°C 55.6°F13.1°C 89% Calm Calm -- 30.22 in1023.4 mb - 0.00 in0.0 mm 0.00 in0.0 mm
05:42 AM 59.0°F15.0°C 55.8°F13.2°C 89% Calm Calm -- 30.22 in1023.4 mb - 0.00 in0.0 mm 0.00 in0.0 mm
05:47 AM 59.2°F15.1°C 55.6°F13.1°C 88% Calm Calm -- 30.22 in1023.4 mb - 0.00 in0.0 mm 0.00 in0.0 mm
05:52 AM 59.2°F15.1°C 55.6°F13.1°C 88% Calm Calm -- 30.22 in1023.4 mb - 0.00 in0.0 mm 0.00 in0.0 mm
05:57 AM 59.2°F15.1°C 55.9°F13.3°C 89% Calm Calm -- 30.22 in1023.4 mb - 0.00 in0.0 mm 0.00 in0.0 mm
06:02 AM 59.2°F15.1°C 55.9°F13.3°C 89% Calm Calm -- 30.22 in1023.4 mb - 0.00 in0.0 mm 0.00 in0.0 mm
06:07 AM 59.4°F15.2°C 55.8°F13.2°C 88% Calm Calm -- 30.22 in1023.4 mb - 0.00 in0.0 mm 0.00 in0.0 mm
06:12 AM 59.4°F15.2°C 55.8°F13.2°C 88% Calm Calm -- 30.22 in1023.4 mb - 0.00 in0.0 mm 0.00 in0.0 mm
06:17 AM 59.4°F15.2°C 56.1°F13.4°C 89% Calm Calm -- 30.22 in1023.4 mb - 0.00 in0.0 mm 0.00 in0.0 mm
06:22 AM 59.5°F15.3°C 56.3°F13.5°C 89% Calm Calm -- 30.22 in1023.4 mb - 0.00 in0.0 mm 0.00 in0.0 mm
06:27 AM 59.5°F15.3°C 56.3°F13.5°C 89% Calm Calm -- 30.22 in1023.4 mb - 0.00 in0.0 mm 0.00 in0.0 mm
06:32 AM 59.7°F15.4°C 56.5°F13.6°C 89% Calm Calm -- 30.22 in1023.4 mb - 0.00 in0.0 mm 0.00 in0.0 mm
06:37 AM 60.1°F15.6°C 56.8°F13.8°C 89% Calm Calm -- 30.23 in1023.7 mb - 0.00 in0.0 mm 0.00 in0.0 mm
06:42 AM 60.3°F15.7°C 57.0°F13.9°C 89% Calm Calm -- 30.23 in1023.7 mb - 0.00 in0.0 mm 0.00 in0.0 mm
06:47 AM 60.4°F15.8°C 57.2°F14.0°C 89% Calm Calm -- 30.23 in1023.7 mb - 0.00 in0.0 mm 0.00 in0.0 mm
06:52 AM 60.8°F16.0°C 57.6°F14.2°C 89% Calm Calm -- 30.23 in1023.7 mb - 0.00 in0.0 mm 0.00 in0.0 mm
06:57 AM 61.2°F16.2°C 57.6°F14.2°C 88% Calm Calm -- 30.23 in1023.7 mb - 0.00 in0.0 mm 0.00 in0.0 mm
07:02 AM 61.3°F16.3°C 57.7°F14.3°C 88% Calm Calm -- 30.23 in1023.7 mb - 0.00 in0.0 mm 0.00 in0.0 mm
07:07 AM 61.9°F16.6°C 58.3°F14.6°C 88% Calm Calm -- 30.23 in1023.7 mb - 0.00 in0.0 mm 0.00 in0.0 mm
07:12 AM 62.2°F16.8°C 58.6°F14.8°C 88% Calm Calm -- 30.23 in1023.7 mb - 0.00 in0.0 mm 0.00 in0.0 mm
07:17 AM 63.0°F17.2°C 59.0°F15.0°C 87% Calm Calm -- 30.23 in1023.7 mb - 0.00 in0.0 mm 0.00 in0.0 mm
07:22 AM 63.9°F17.7°C 59.5°F15.3°C 86% Calm Calm -- 30.23 in1023.7 mb - 0.00 in0.0 mm 0.00 in0.0 mm
07:27 AM 64.8°F18.2°C 59.9°F15.5°C 84% Calm Calm -- 30.23 in1023.7 mb - 0.00 in0.0 mm 0.00 in0.0 mm
07:32 AM 65.3°F18.5°C 60.1°F15.6°C 83% Calm Calm -- 30.23 in1023.7 mb - 0.00 in0.0 mm 0.00 in0.0 mm
07:37 AM 65.8°F18.8°C 59.5°F15.3°C 80% Calm Calm -- 30.23 in1023.7 mb - 0.00 in0.0 mm 0.00 in0.0 mm
07:42 AM 66.6°F19.2°C 60.6°F15.9°C 81% Calm Calm -- 30.23 in1023.7 mb - 0.00 in0.0 mm 0.00 in0.0 mm
07:47 AM 66.6°F19.2°C 59.9°F15.5°C 79% Calm Calm -- 30.23 in1023.7 mb - 0.00 in0.0 mm 0.00 in0.0 mm
07:52 AM 67.1°F19.5°C 60.1°F15.6°C 78% Calm Calm -- 30.23 in1023.7 mb - 0.00 in0.0 mm 0.00 in0.0 mm
07:57 AM 67.5°F19.7°C 60.8°F16.0°C 79% Calm Calm -- 30.23 in1023.7 mb - 0.00 in0.0 mm 0.00 in0.0 mm
08:02 AM 67.6°F19.8°C 61.2°F16.2°C 80% Calm Calm -- 30.22 in1023.4 mb - 0.00 in0.0 mm 0.00 in0.0 mm
08:07 AM 68.2°F20.1°C 61.0°F16.1°C 78% Calm Calm -- 30.23 in1023.7 mb - 0.00 in0.0 mm 0.00 in0.0 mm
08:12 AM 68.9°F20.5°C 61.7°F16.5°C 78% Calm Calm -- 30.22 in1023.4 mb - 0.00 in0.0 mm 0.00 in0.0 mm
08:17 AM 69.3°F20.7°C 61.0°F16.1°C 75% Calm Calm -- 30.22 in1023.4 mb - 0.00 in0.0 mm 0.00 in0.0 mm
08:22 AM 70.0°F21.1°C 61.3°F16.3°C 74% Calm Calm -- 30.22 in1023.4 mb - 0.00 in0.0 mm 0.00 in0.0 mm
08:27 AM 70.0°F21.1°C 61.3°F16.3°C 74% Calm Calm -- 30.22 in1023.4 mb - 0.00 in0.0 mm 0.00 in0.0 mm
08:32 AM 70.2°F21.2°C 61.5°F16.4°C 74% Calm Calm -- 30.22 in1023.4 mb - 0.00 in0.0 mm 0.00 in0.0 mm
08:37 AM 70.9°F21.6°C 62.6°F17.0°C 75% Calm Calm -- 30.22 in1023.4 mb - 0.00 in0.0 mm 0.00 in0.0 mm
08:42 AM 71.6°F22.0°C 61.7°F16.5°C 71% Calm Calm -- 30.22 in1023.4 mb - 0.00 in0.0 mm 0.00 in0.0 mm
08:47 AM 71.4°F21.9°C 59.9°F15.5°C 67% Calm Calm 2.9 mph4.7 kmh 30.22 in1023.4 mb - 0.00 in0.0 mm 0.00 in0.0 mm
08:52 AM 71.8°F22.1°C 60.3°F15.7°C 67% Calm Calm -- 30.22 in1023.4 mb - 0.00 in0.0 mm 0.00 in0.0 mm
08:57 AM 72.1°F22.3°C 60.1°F15.6°C 66% Calm Calm -- 30.22 in1023.4 mb - 0.00 in0.0 mm 0.00 in0.0 mm
09:02 AM 72.3°F22.4°C 59.9°F15.5°C 65% 0.9 mph S1.4 kmh S -- 30.22 in1023.4 mb - 0.00 in0.0 mm 0.00 in0.0 mm
09:07 AM 72.7°F22.6°C 60.6°F15.9°C 66% 0.9 mph S1.4 kmh S -- 30.22 in1023.4 mb - 0.00 in0.0 mm 0.00 in0.0 mm
09:12 AM 72.9°F22.7°C 61.3°F16.3°C 67% Calm Calm -- 30.22 in1023.4 mb - 0.00 in0.0 mm 0.00 in0.0 mm
09:17 AM 73.4°F23.0°C 61.3°F16.3°C 66% Calm Calm -- 30.22 in1023.4 mb - 0.00 in0.0 mm 0.00 in0.0 mm
09:22 AM 73.9°F23.3°C 61.3°F16.3°C 65% Calm Calm 2.0 mph3.2 kmh 30.22 in1023.4 mb - 0.00 in0.0 mm 0.00 in0.0 mm
09:27 AM 73.8°F23.2°C 60.4°F15.8°C 63% Calm Calm -- 30.22 in1023.4 mb - 0.00 in0.0 mm 0.00 in0.0 mm
09:32 AM 74.1°F23.4°C 59.4°F15.2°C 60% Calm Calm -- 30.22 in1023.4 mb - 0.00 in0.0 mm 0.00 in0.0 mm
09:37 AM 74.8°F23.8°C 59.5°F15.3°C 59% Calm Calm -- 30.22 in1023.4 mb - 0.00 in0.0 mm 0.00 in0.0 mm
09:42 AM 74.8°F23.8°C 58.1°F14.5°C 56% Calm Calm -- 30.22 in1023.4 mb - 0.00 in0.0 mm 0.00 in0.0 mm
09:47 AM 75.6°F24.2°C 58.3°F14.6°C 55% Calm Calm -- 30.22 in1023.4 mb - 0.00 in0.0 mm 0.00 in0.0 mm
09:52 AM 75.7°F24.3°C 59.0°F15.0°C 56% Calm Calm -- 30.22 in1023.4 mb - 0.00 in0.0 mm 0.00 in0.0 mm
09:57 AM 75.9°F24.4°C 60.1°F15.6°C 58% Calm Calm -- 30.22 in1023.4 mb - 0.00 in0.0 mm 0.00 in0.0 mm
10:02 AM 76.5°F24.7°C 60.1°F15.6°C 57% Calm Calm -- 30.22 in1023.4 mb - 0.00 in0.0 mm 0.00 in0.0 mm
10:07 AM 76.5°F24.7°C 59.5°F15.3°C 56% Calm Calm -- 30.22 in1023.4 mb - 0.00 in0.0 mm 0.00 in0.0 mm
10:12 AM 76.5°F24.7°C 59.2°F15.1°C 55% Calm Calm 2.9 mph4.7 kmh 30.22 in1023.4 mb - 0.00 in0.0 mm 0.00 in0.0 mm
10:17 AM 76.5°F24.7°C 58.6°F14.8°C 54% 0.9 mph S1.4 kmh S 0.9 mph1.4 kmh 30.22 in1023.4 mb - 0.00 in0.0 mm 0.00 in0.0 mm
10:22 AM 75.9°F24.4°C 58.1°F14.5°C 54% 0.9 mph S1.4 kmh S -- 30.22 in1023.4 mb - 0.00 in0.0 mm 0.00 in0.0 mm
10:27 AM 76.6°F24.8°C 59.2°F15.1°C 55% 0.9 mph SE1.4 kmh SE -- 30.22 in1023.4 mb - 0.00 in0.0 mm 0.00 in0.0 mm
10:32 AM 76.3°F24.6°C 57.4°F14.1°C 52% Calm Calm -- 30.22 in1023.4 mb - 0.00 in0.0 mm 0.00 in0.0 mm
10:37 AM 76.8°F24.9°C 59.0°F15.0°C 54% Calm Calm -- 30.22 in1023.4 mb - 0.00 in0.0 mm 0.00 in0.0 mm
10:42 AM 77.5°F25.3°C 58.5°F14.7°C 52% Calm Calm 2.9 mph4.7 kmh 30.22 in1023.4 mb - 0.00 in0.0 mm 0.00 in0.0 mm
10:47 AM 77.2°F25.1°C 57.7°F14.3°C 51% 0.9 mph S1.4 kmh S -- 30.22 in1023.4 mb - 0.00 in0.0 mm 0.00 in0.0 mm
10:52 AM 77.2°F25.1°C 58.6°F14.8°C 53% 0.9 mph SE1.4 kmh SE 2.9 mph4.7 kmh 30.22 in1023.4 mb - 0.00 in0.0 mm 0.00 in0.0 mm
10:57 AM 77.5°F25.3°C 59.0°F15.0°C 53% 0.9 mph SE1.4 kmh SE -- 30.22 in1023.4 mb - 0.00 in0.0 mm 0.00 in0.0 mm
11:02 AM 77.7°F25.4°C 58.1°F14.5°C 51% 0.9 mph SSW1.4 kmh SSW 2.0 mph3.2 kmh 30.21 in1023.0 mb - 0.00 in0.0 mm 0.00 in0.0 mm
11:07 AM 77.7°F25.4°C 58.6°F14.8°C 52% 2.0 mph S3.2 kmh S -- 30.21 in1023.0 mb - 0.00 in0.0 mm 0.00 in0.0 mm
11:12 AM 77.7°F25.4°C 58.6°F14.8°C 52% 2.0 mph S3.2 kmh S 2.9 mph4.7 kmh 30.21 in1023.0 mb - 0.00 in0.0 mm 0.00 in0.0 mm
11:17 AM 78.3°F25.7°C 58.1°F14.5°C 50% 2.0 mph S3.2 kmh S -- 30.22 in1023.4 mb - 0.00 in0.0 mm 0.00 in0.0 mm
11:22 AM 78.6°F25.9°C 58.5°F14.7°C 50% 0.9 mph ESE1.4 kmh ESE -- 30.22 in1023.4 mb - 0.00 in0.0 mm 0.00 in0.0 mm
11:27 AM 78.6°F25.9°C 57.9°F14.4°C 49% 0.9 mph WSW1.4 kmh WSW 2.9 mph4.7 kmh 30.22 in1023.4 mb - 0.00 in0.0 mm 0.00 in0.0 mm
11:32 AM 78.6°F25.9°C 59.0°F15.0°C 51% 0.9 mph WSW1.4 kmh WSW -- 30.22 in1023.4 mb - 0.00 in0.0 mm 0.00 in0.0 mm
11:37 AM 79.3°F26.3°C 58.5°F14.7°C 49% 0.9 mph SW1.4 kmh SW -- 30.21 in1023.0 mb - 0.00 in0.0 mm 0.00 in0.0 mm
11:42 AM 79.5°F26.4°C 59.2°F15.1°C 50% 0.9 mph S1.4 kmh S -- 30.22 in1023.4 mb - 0.00 in0.0 mm 0.00 in0.0 mm
11:47 AM 79.2°F26.2°C 59.0°F15.0°C 50% Calm Calm -- 30.21 in1023.0 mb - 0.00 in0.0 mm 0.00 in0.0 mm
11:52 AM 79.0°F26.1°C 57.6°F14.2°C 48% Calm Calm 4.0 mph6.4 kmh 30.22 in1023.4 mb - 0.00 in0.0 mm 0.00 in0.0 mm
11:57 AM 78.3°F25.7°C 58.1°F14.5°C 50% 0.9 mph SSW1.4 kmh SSW -- 30.22 in1023.4 mb - 0.00 in0.0 mm 0.00 in0.0 mm
12:02 PM 78.1°F25.6°C 60.1°F15.6°C 54% 0.9 mph WNW1.4 kmh WNW -- 30.22 in1023.4 mb - 0.00 in0.0 mm 0.00 in0.0 mm
12:07 PM 77.4°F25.2°C 61.0°F16.1°C 57% 2.0 mph NW3.2 kmh NW -- 30.22 in1023.4 mb - 0.00 in0.0 mm 0.00 in0.0 mm
12:12 PM 76.6°F24.8°C 61.7°F16.5°C 60% 2.9 mph WNW4.7 kmh WNW -- 30.22 in1023.4 mb - 0.00 in0.0 mm 0.00 in0.0 mm
12:17 PM 76.3°F24.6°C 61.9°F16.6°C 61% 2.9 mph W4.7 kmh W 4.0 mph6.4 kmh 30.21 in1023.0 mb - 0.00 in0.0 mm 0.00 in0.0 mm
12:22 PM 76.5°F24.7°C 62.4°F16.9°C 62% 2.9 mph NW4.7 kmh NW 4.0 mph6.4 kmh 30.21 in1023.0 mb - 0.00 in0.0 mm 0.00 in0.0 mm
12:27 PM 76.5°F24.7°C 61.5°F16.4°C 60% 4.0 mph NW6.4 kmh NW 0.9 mph1.4 kmh 30.21 in1023.0 mb - 0.00 in0.0 mm 0.00 in0.0 mm
12:32 PM 76.5°F24.7°C 62.1°F16.7°C 61% 2.9 mph WNW4.7 kmh WNW -- 30.21 in1023.0 mb - 0.00 in0.0 mm 0.00 in0.0 mm
12:37 PM 76.6°F24.8°C 62.6°F17.0°C 62% 2.0 mph NW3.2 kmh NW 0.9 mph1.4 kmh 30.21 in1023.0 mb - 0.00 in0.0 mm 0.00 in0.0 mm
12:42 PM 76.3°F24.6°C 62.2°F16.8°C 62% 2.9 mph NW4.7 kmh NW 2.0 mph3.2 kmh 30.22 in1023.4 mb - 0.00 in0.0 mm 0.00 in0.0 mm
12:47 PM 76.1°F24.5°C 62.1°F16.7°C 62% 2.0 mph W3.2 kmh W -- 30.21 in1023.0 mb - 0.00 in0.0 mm 0.00 in0.0 mm
12:52 PM 76.5°F24.7°C 63.0°F17.2°C 63% 0.9 mph N1.4 kmh N 2.0 mph3.2 kmh 30.21 in1023.0 mb - 0.00 in0.0 mm 0.00 in0.0 mm
12:57 PM 77.0°F25.0°C 62.6°F17.0°C 61% 0.9 mph NW1.4 kmh NW -- 30.21 in1023.0 mb - 0.00 in0.0 mm 0.00 in0.0 mm
01:02 PM 77.7°F25.4°C 62.2°F16.8°C 59% 2.9 mph NNW4.7 kmh NNW 2.9 mph4.7 kmh 30.21 in1023.0 mb - 0.00 in0.0 mm 0.00 in0.0 mm
01:07 PM 77.7°F25.4°C 61.7°F16.5°C 58% 0.9 mph W1.4 kmh W -- 30.21 in1023.0 mb - 0.00 in0.0 mm 0.00 in0.0 mm
01:12 PM 77.9°F25.5°C 63.0°F17.2°C 60% Calm Calm -- 30.21 in1023.0 mb - 0.00 in0.0 mm 0.00 in0.0 mm
01:17 PM 78.8°F26.0°C 62.8°F17.1°C 58% 0.9 mph NW1.4 kmh NW -- 30.21 in1023.0 mb - 0.00 in0.0 mm 0.00 in0.0 mm
01:22 PM 78.6°F25.9°C 62.1°F16.7°C 57% 0.9 mph NW1.4 kmh NW -- 30.20 in1022.7 mb - 0.00 in0.0 mm 0.00 in0.0 mm
01:27 PM 78.6°F25.9°C 62.6°F17.0°C 58% Calm Calm 4.9 mph7.9 kmh 30.20 in1022.7 mb - 0.00 in0.0 mm 0.00 in0.0 mm
01:32 PM 79.2°F26.2°C 64.0°F17.8°C 60% 0.9 mph E1.4 kmh E -- 30.20 in1022.7 mb - 0.00 in0.0 mm 0.00 in0.0 mm
01:37 PM 79.2°F26.2°C 62.1°F16.7°C 56% 0.9 mph NW1.4 kmh NW -- 30.20 in1022.7 mb - 0.00 in0.0 mm 0.00 in0.0 mm
01:42 PM 79.2°F26.2°C 63.1°F17.3°C 58% Calm Calm -- 30.19 in1022.4 mb - 0.00 in0.0 mm 0.00 in0.0 mm
01:47 PM 80.1°F26.7°C 62.4°F16.9°C 55% 0.9 mph NNW1.4 kmh NNW 0.9 mph1.4 kmh 30.19 in1022.4 mb - 0.00 in0.0 mm 0.00 in0.0 mm
01:52 PM 80.2°F26.8°C 61.0°F16.1°C 52% 0.9 mph NNW1.4 kmh NNW 2.0 mph3.2 kmh 30.19 in1022.4 mb - 0.00 in0.0 mm 0.00 in0.0 mm
01:57 PM 80.2°F26.8°C 61.0°F16.1°C 52% 0.9 mph WNW1.4 kmh WNW 0.9 mph1.4 kmh 30.19 in1022.4 mb - 0.00 in0.0 mm 0.00 in0.0 mm
02:02 PM 79.9°F26.6°C 59.5°F15.3°C 50% 2.9 mph W4.7 kmh W 2.0 mph3.2 kmh 30.19 in1022.4 mb - 0.00 in0.0 mm 0.00 in0.0 mm
02:07 PM 79.9°F26.6°C 61.7°F16.5°C 54% 4.0 mph NW6.4 kmh NW -- 30.20 in1022.7 mb - 0.00 in0.0 mm 0.00 in0.0 mm
02:12 PM 79.3°F26.3°C 60.8°F16.0°C 53% 2.0 mph WNW3.2 kmh WNW 0.9 mph1.4 kmh 30.19 in1022.4 mb - 0.00 in0.0 mm 0.00 in0.0 mm
02:17 PM 80.1°F26.7°C 60.3°F15.7°C 51% 2.0 mph WNW3.2 kmh WNW 2.0 mph3.2 kmh 30.19 in1022.4 mb - 0.00 in0.0 mm 0.00 in0.0 mm
02:22 PM 80.1°F26.7°C 61.3°F16.3°C 53% 2.9 mph WSW4.7 kmh WSW 0.9 mph1.4 kmh 30.19 in1022.4 mb - 0.00 in0.0 mm 0.00 in0.0 mm
02:27 PM 79.9°F26.6°C 61.2°F16.2°C 53% 0.9 mph W1.4 kmh W 4.0 mph6.4 kmh 30.19 in1022.4 mb - 0.00 in0.0 mm 0.00 in0.0 mm
02:32 PM 80.8°F27.1°C 62.1°F16.7°C 53% 2.0 mph WSW3.2 kmh WSW 6.9 mph11.1 kmh 30.19 in1022.4 mb - 0.00 in0.0 mm 0.00 in0.0 mm
02:37 PM 80.4°F26.9°C 59.5°F15.3°C 49% 2.9 mph WNW4.7 kmh WNW 4.0 mph6.4 kmh 30.19 in1022.4 mb - 0.00 in0.0 mm 0.00 in0.0 mm
02:42 PM 80.1°F26.7°C 59.2°F15.1°C 49% 2.9 mph NW4.7 kmh NW 2.9 mph4.7 kmh 30.19 in1022.4 mb - 0.00 in0.0 mm 0.00 in0.0 mm
02:47 PM 81.0°F27.2°C 60.1°F15.6°C 49% 2.0 mph NW3.2 kmh NW 2.0 mph3.2 kmh 30.19 in1022.4 mb - 0.00 in0.0 mm 0.00 in0.0 mm
02:52 PM 81.3°F27.4°C 61.0°F16.1°C 50% 2.0 mph E3.2 kmh E 2.0 mph3.2 kmh 30.19 in1022.4 mb - 0.00 in0.0 mm 0.00 in0.0 mm
02:57 PM 81.1°F27.3°C 57.7°F14.3°C 45% 0.9 mph N1.4 kmh N 0.9 mph1.4 kmh 30.19 in1022.4 mb - 0.00 in0.0 mm 0.00 in0.0 mm
03:02 PM 81.7°F27.6°C 57.6°F14.2°C 44% 0.9 mph NW1.4 kmh NW -- 30.19 in1022.4 mb - 0.00 in0.0 mm 0.00 in0.0 mm
03:07 PM 81.3°F27.4°C 58.6°F14.8°C 46% 0.9 mph SSE1.4 kmh SSE -- 30.19 in1022.4 mb - 0.00 in0.0 mm 0.00 in0.0 mm
03:12 PM 82.0°F27.8°C 59.9°F15.5°C 47% Calm Calm 0.9 mph1.4 kmh 30.18 in1022.0 mb - 0.00 in0.0 mm 0.00 in0.0 mm
03:17 PM 82.2°F27.9°C 58.1°F14.5°C 44% 0.9 mph SSE1.4 kmh SSE 0.9 mph1.4 kmh 30.18 in1022.0 mb - 0.00 in0.0 mm 0.00 in0.0 mm
03:22 PM 81.7°F27.6°C 58.8°F14.9°C 46% 0.9 mph WSW1.4 kmh WSW 2.9 mph4.7 kmh 30.18 in1022.0 mb - 0.00 in0.0 mm 0.00 in0.0 mm
03:27 PM 81.3°F27.4°C 57.4°F14.1°C 44% 2.0 mph NNW3.2 kmh NNW 4.0 mph6.4 kmh 30.18 in1022.0 mb - 0.00 in0.0 mm 0.00 in0.0 mm
03:32 PM 81.7°F27.6°C 60.1°F15.6°C 48% 2.9 mph NNW4.7 kmh NNW -- 30.18 in1022.0 mb - 0.00 in0.0 mm 0.00 in0.0 mm
03:37 PM 81.5°F27.5°C 60.4°F15.8°C 49% 2.0 mph NW3.2 kmh NW 2.0 mph3.2 kmh 30.18 in1022.0 mb - 0.00 in0.0 mm 0.00 in0.0 mm
03:42 PM 81.0°F27.2°C 58.8°F14.9°C 47% 2.0 mph WNW3.2 kmh WNW -- 30.18 in1022.0 mb - 0.00 in0.0 mm 0.00 in0.0 mm
03:47 PM 80.8°F27.1°C 58.6°F14.8°C 47% 2.0 mph ESE3.2 kmh ESE -- 30.18 in1022.0 mb - 0.00 in0.0 mm 0.00 in0.0 mm
03:52 PM 80.4°F26.9°C 58.3°F14.6°C 47% 0.9 mph NW1.4 kmh NW -- 30.18 in1022.0 mb - 0.00 in0.0 mm 0.00 in0.0 mm
03:57 PM 80.6°F27.0°C 57.9°F14.4°C 46% 0.9 mph WNW1.4 kmh WNW 2.0 mph3.2 kmh 30.18 in1022.0 mb - 0.00 in0.0 mm 0.00 in0.0 mm
04:02 PM 80.4°F26.9°C 57.7°F14.3°C 46% 0.9 mph NW1.4 kmh NW -- 30.18 in1022.0 mb - 0.00 in0.0 mm 0.00 in0.0 mm
04:07 PM 80.1°F26.7°C 58.1°F14.5°C 47% 0.9 mph W1.4 kmh W -- 30.18 in1022.0 mb - 0.00 in0.0 mm 0.00 in0.0 mm
04:12 PM 80.1°F26.7°C 58.1°F14.5°C 47% Calm Calm -- 30.18 in1022.0 mb - 0.00 in0.0 mm 0.00 in0.0 mm
04:17 PM 80.1°F26.7°C 57.4°F14.1°C 46% 0.9 mph NW1.4 kmh NW 6.0 mph9.7 kmh 30.18 in1022.0 mb - 0.00 in0.0 mm 0.00 in0.0 mm
04:22 PM 79.7°F26.5°C 58.8°F14.9°C 49% 2.9 mph NW4.7 kmh NW 4.0 mph6.4 kmh 30.18 in1022.0 mb - 0.00 in0.0 mm 0.00 in0.0 mm
04:27 PM 79.9°F26.6°C 57.9°F14.4°C 47% 2.9 mph WNW4.7 kmh WNW 2.0 mph3.2 kmh 30.18 in1022.0 mb - 0.00 in0.0 mm 0.00 in0.0 mm
04:32 PM 80.1°F26.7°C 58.1°F14.5°C 47% 2.0 mph N3.2 kmh N -- 30.18 in1022.0 mb - 0.00 in0.0 mm 0.00 in0.0 mm
04:37 PM 79.9°F26.6°C 57.9°F14.4°C 47% 0.9 mph NW1.4 kmh NW -- 30.17 in1021.7 mb - 0.00 in0.0 mm 0.00 in0.0 mm
04:42 PM 79.7°F26.5°C 57.0°F13.9°C 46% 0.9 mph NW1.4 kmh NW 2.0 mph3.2 kmh 30.17 in1021.7 mb - 0.00 in0.0 mm 0.00 in0.0 mm
04:47 PM 79.7°F26.5°C 57.7°F14.3°C 47% 0.9 mph NW1.4 kmh NW -- 30.17 in1021.7 mb - 0.00 in0.0 mm 0.00 in0.0 mm
04:52 PM 79.5°F26.4°C 58.1°F14.5°C 48% 0.9 mph NW1.4 kmh NW 0.9 mph1.4 kmh 30.17 in1021.7 mb - 0.00 in0.0 mm 0.00 in0.0 mm
04:57 PM 79.3°F26.3°C 57.4°F14.1°C 47% 0.9 mph NW1.4 kmh NW -- 30.17 in1021.7 mb - 0.00 in0.0 mm 0.00 in0.0 mm
05:02 PM 79.9°F26.6°C 59.5°F15.3°C 50% 0.9 mph NW1.4 kmh NW 4.9 mph7.9 kmh 30.17 in1021.7 mb - 0.00 in0.0 mm 0.00 in0.0 mm
05:07 PM 79.9°F26.6°C 57.9°F14.4°C 47% 0.9 mph NW1.4 kmh NW 2.0 mph3.2 kmh 30.17 in1021.7 mb - 0.00 in0.0 mm 0.00 in0.0 mm
05:12 PM 79.3°F26.3°C 58.5°F14.7°C 49% 2.0 mph NNW3.2 kmh NNW -- 30.17 in1021.7 mb - 0.00 in0.0 mm 0.00 in0.0 mm
05:17 PM 78.8°F26.0°C 58.6°F14.8°C 50% 2.0 mph NW3.2 kmh NW 2.9 mph4.7 kmh 30.17 in1021.7 mb - 0.00 in0.0 mm 0.00 in0.0 mm
05:22 PM 78.3°F25.7°C 58.6°F14.8°C 51% 0.9 mph NW1.4 kmh NW 2.9 mph4.7 kmh 30.17 in1021.7 mb - 0.00 in0.0 mm 0.00 in0.0 mm
05:27 PM 78.1°F25.6°C 59.0°F15.0°C 52% 0.9 mph WNW1.4 kmh WNW -- 30.17 in1021.7 mb - 0.00 in0.0 mm 0.00 in0.0 mm
05:32 PM 78.1°F25.6°C 59.0°F15.0°C 52% 2.0 mph W3.2 kmh W 4.0 mph6.4 kmh 30.17 in1021.7 mb - 0.00 in0.0 mm 0.00 in0.0 mm
05:37 PM 77.7°F25.4°C 58.6°F14.8°C 52% 2.0 mph NW3.2 kmh NW -- 30.17 in1021.7 mb - 0.00 in0.0 mm 0.00 in0.0 mm
05:42 PM 77.9°F25.5°C 58.8°F14.9°C 52% 2.0 mph W3.2 kmh W 0.9 mph1.4 kmh 30.17 in1021.7 mb - 0.00 in0.0 mm 0.00 in0.0 mm
05:47 PM 77.9°F25.5°C 58.8°F14.9°C 52% 0.9 mph WNW1.4 kmh WNW 0.9 mph1.4 kmh 30.17 in1021.7 mb - 0.00 in0.0 mm 0.00 in0.0 mm
05:52 PM 77.9°F25.5°C 59.4°F15.2°C 53% 2.0 mph W3.2 kmh W 0.9 mph1.4 kmh 30.17 in1021.7 mb - 0.00 in0.0 mm 0.00 in0.0 mm
05:57 PM 77.7°F25.4°C 59.7°F15.4°C 54% 2.0 mph WNW3.2 kmh WNW 4.0 mph6.4 kmh 30.16 in1021.3 mb - 0.00 in0.0 mm 0.00 in0.0 mm
06:02 PM 77.7°F25.4°C 60.3°F15.7°C 55% 2.0 mph NW3.2 kmh NW 0.9 mph1.4 kmh 30.16 in1021.3 mb - 0.00 in0.0 mm 0.00 in0.0 mm
06:07 PM 77.5°F25.3°C 60.6°F15.9°C 56% 0.9 mph NW1.4 kmh NW -- 30.16 in1021.3 mb - 0.00 in0.0 mm 0.00 in0.0 mm
06:12 PM 77.2°F25.1°C 60.3°F15.7°C 56% 0.9 mph NW1.4 kmh NW 2.0 mph3.2 kmh 30.16 in1021.3 mb - 0.00 in0.0 mm 0.00 in0.0 mm
06:17 PM 76.5°F24.7°C 60.6°F15.9°C 58% 2.0 mph NW3.2 kmh NW 2.0 mph3.2 kmh 30.16 in1021.3 mb - 0.00 in0.0 mm 0.00 in0.0 mm
06:22 PM 76.3°F24.6°C 61.0°F16.1°C 59% 2.0 mph NW3.2 kmh NW 0.9 mph1.4 kmh 30.16 in1021.3 mb - 0.00 in0.0 mm 0.00 in0.0 mm
06:27 PM 76.1°F24.5°C 60.3°F15.7°C 58% 0.9 mph NW1.4 kmh NW -- 30.16 in1021.3 mb - 0.00 in0.0 mm 0.00 in0.0 mm
06:32 PM 75.9°F24.4°C 60.6°F15.9°C 59% 0.9 mph NW1.4 kmh NW -- 30.16 in1021.3 mb - 0.00 in0.0 mm 0.00 in0.0 mm
06:37 PM 75.6°F24.2°C 60.6°F15.9°C 60% Calm Calm -- 30.16 in1021.3 mb - 0.00 in0.0 mm 0.00 in0.0 mm
06:42 PM 74.5°F23.6°C 60.1°F15.6°C 61% Calm Calm -- 30.16 in1021.3 mb - 0.00 in0.0 mm 0.00 in0.0 mm
06:47 PM 73.9°F23.3°C 60.6°F15.9°C 63% Calm Calm -- 30.16 in1021.3 mb - 0.00 in0.0 mm 0.00 in0.0 mm
06:52 PM 73.6°F23.1°C 60.3°F15.7°C 63% Calm Calm -- 30.16 in1021.3 mb - 0.00 in0.0 mm 0.00 in0.0 mm
06:57 PM 73.0°F22.8°C 61.0°F16.1°C 66% Calm Calm -- 30.16 in1021.3 mb - 0.00 in0.0 mm 0.00 in0.0 mm
07:02 PM 72.3°F22.4°C 60.3°F15.7°C 66% 0.9 mph N1.4 kmh N -- 30.16 in1021.3 mb - 0.00 in0.0 mm 0.00 in0.0 mm
07:07 PM 72.1°F22.3°C 59.7°F15.4°C 65% 2.0 mph N3.2 kmh N 2.0 mph3.2 kmh 30.17 in1021.7 mb - 0.00 in0.0 mm 0.00 in0.0 mm
07:12 PM 72.1°F22.3°C 59.7°F15.4°C 65% 2.0 mph NW3.2 kmh NW -- 30.16 in1021.3 mb - 0.00 in0.0 mm 0.00 in0.0 mm
07:17 PM 72.1°F22.3°C 60.1°F15.6°C 66% 0.9 mph N1.4 kmh N -- 30.16 in1021.3 mb - 0.00 in0.0 mm 0.00 in0.0 mm
07:22 PM 71.8°F22.1°C 60.3°F15.7°C 67% Calm Calm -- 30.17 in1021.7 mb - 0.00 in0.0 mm 0.00 in0.0 mm
07:27 PM 71.4°F21.9°C 59.9°F15.5°C 67% Calm Calm -- 30.17 in1021.7 mb - 0.00 in0.0 mm 0.00 in0.0 mm
07:32 PM 71.4°F21.9°C 59.9°F15.5°C 67% Calm Calm -- 30.17 in1021.7 mb - 0.00 in0.0 mm 0.00 in0.0 mm
07:37 PM 71.1°F21.7°C 59.9°F15.5°C 68% Calm Calm -- 30.17 in1021.7 mb - 0.00 in0.0 mm 0.00 in0.0 mm
07:42 PM 70.5°F21.4°C 59.4°F15.2°C 68% Calm Calm -- 30.17 in1021.7 mb - 0.00 in0.0 mm 0.00 in0.0 mm
07:47 PM 70.2°F21.2°C 59.5°F15.3°C 69% Calm Calm -- 30.17 in1021.7 mb - 0.00 in0.0 mm 0.00 in0.0 mm
07:52 PM 69.8°F21.0°C 58.8°F14.9°C 68% Calm Calm -- 30.17 in1021.7 mb - 0.00 in0.0 mm 0.00 in0.0 mm
07:57 PM 69.4°F20.8°C 58.8°F14.9°C 69% Calm Calm -- 30.17 in1021.7 mb - 0.00 in0.0 mm 0.00 in0.0 mm
08:02 PM 69.3°F20.7°C 58.6°F14.8°C 69% Calm Calm -- 30.17 in1021.7 mb - 0.00 in0.0 mm 0.00 in0.0 mm
08:07 PM 68.9°F20.5°C 58.3°F14.6°C 69% Calm Calm -- 30.17 in1021.7 mb - 0.00 in0.0 mm 0.00 in0.0 mm
08:12 PM 68.7°F20.4°C 58.5°F14.7°C 70% Calm Calm -- 30.17 in1021.7 mb - 0.00 in0.0 mm 0.00 in0.0 mm
08:17 PM 68.5°F20.3°C 58.8°F14.9°C 71% Calm Calm -- 30.17 in1021.7 mb - 0.00 in0.0 mm 0.00 in0.0 mm
08:22 PM 68.2°F20.1°C 58.5°F14.7°C 71% Calm Calm -- 30.17 in1021.7 mb - 0.00 in0.0 mm 0.00 in0.0 mm
08:27 PM 67.6°F19.8°C 57.9°F14.4°C 71% Calm Calm -- 30.17 in1021.7 mb - 0.00 in0.0 mm 0.00 in0.0 mm
08:32 PM 67.5°F19.7°C 58.1°F14.5°C 72% Calm Calm -- 30.17 in1021.7 mb - 0.00 in0.0 mm 0.00 in0.0 mm
08:37 PM 67.1°F19.5°C 57.7°F14.3°C 72% Calm Calm -- 30.17 in1021.7 mb - 0.00 in0.0 mm 0.00 in0.0 mm
08:42 PM 66.7°F19.3°C 57.7°F14.3°C 73% Calm Calm -- 30.17 in1021.7 mb - 0.00 in0.0 mm 0.00 in0.0 mm
08:47 PM 66.6°F19.2°C 57.6°F14.2°C 73% Calm Calm -- 30.17 in1021.7 mb - 0.00 in0.0 mm 0.00 in0.0 mm
08:52 PM 66.4°F19.1°C 57.4°F14.1°C 73% Calm Calm -- 30.18 in1022.0 mb - 0.00 in0.0 mm 0.00 in0.0 mm
08:57 PM 66.2°F19.0°C 57.7°F14.3°C 74% Calm Calm -- 30.18 in1022.0 mb - 0.00 in0.0 mm 0.00 in0.0 mm
09:02 PM 65.8°F18.8°C 57.4°F14.1°C 74% Calm Calm -- 30.18 in1022.0 mb - 0.00 in0.0 mm 0.00 in0.0 mm
09:07 PM 65.7°F18.7°C 57.2°F14.0°C 74% Calm Calm -- 30.18 in1022.0 mb - 0.00 in0.0 mm 0.00 in0.0 mm
09:12 PM 65.5°F18.6°C 57.0°F13.9°C 74% Calm Calm -- 30.18 in1022.0 mb - 0.00 in0.0 mm 0.00 in0.0 mm
09:17 PM 65.3°F18.5°C 56.8°F13.8°C 74% Calm Calm -- 30.18 in1022.0 mb - 0.00 in0.0 mm 0.00 in0.0 mm
09:22 PM 65.1°F18.4°C 56.7°F13.7°C 74% Calm Calm -- 30.18 in1022.0 mb - 0.00 in0.0 mm 0.00 in0.0 mm
09:27 PM 64.9°F18.3°C 56.5°F13.6°C 74% Calm Calm -- 30.18 in1022.0 mb - 0.00 in0.0 mm 0.00 in0.0 mm
09:32 PM 64.8°F18.2°C 56.3°F13.5°C 74% Calm Calm -- 30.18 in1022.0 mb - 0.00 in0.0 mm 0.00 in0.0 mm
09:37 PM 64.6°F18.1°C 56.5°F13.6°C 75% Calm Calm -- 30.18 in1022.0 mb - 0.00 in0.0 mm 0.00 in0.0 mm
09:42 PM 64.6°F18.1°C 56.5°F13.6°C 75% Calm Calm -- 30.18 in1022.0 mb - 0.00 in0.0 mm 0.00 in0.0 mm
09:47 PM 64.6°F18.1°C 56.5°F13.6°C 75% Calm Calm -- 30.18 in1022.0 mb - 0.00 in0.0 mm 0.00 in0.0 mm
09:52 PM 64.6°F18.1°C 56.5°F13.6°C 75% Calm Calm -- 30.18 in1022.0 mb - 0.00 in0.0 mm 0.00 in0.0 mm
09:57 PM 64.2°F17.9°C 56.1°F13.4°C 75% Calm Calm -- 30.18 in1022.0 mb - 0.00 in0.0 mm 0.00 in0.0 mm
10:02 PM 64.0°F17.8°C 55.9°F13.3°C 75% Calm Calm -- 30.18 in1022.0 mb - 0.00 in0.0 mm 0.00 in0.0 mm
10:07 PM 64.0°F17.8°C 55.9°F13.3°C 75% Calm Calm -- 30.18 in1022.0 mb - 0.00 in0.0 mm 0.00 in0.0 mm
10:12 PM 64.0°F17.8°C 55.9°F13.3°C 75% Calm Calm -- 30.18 in1022.0 mb - 0.00 in0.0 mm 0.00 in0.0 mm
10:17 PM 64.2°F17.9°C 56.1°F13.4°C 75% Calm Calm -- 30.18 in1022.0 mb - 0.00 in0.0 mm 0.00 in0.0 mm
10:22 PM 64.4°F18.0°C 55.9°F13.3°C 74% Calm Calm -- 30.18 in1022.0 mb - 0.00 in0.0 mm 0.00 in0.0 mm
10:27 PM 64.2°F17.9°C 55.8°F13.2°C 74% Calm Calm -- 30.18 in1022.0 mb - 0.00 in0.0 mm 0.00 in0.0 mm
10:32 PM 64.2°F17.9°C 55.8°F13.2°C 74% Calm Calm 2.9 mph4.7 kmh 30.18 in1022.0 mb - 0.00 in0.0 mm 0.00 in0.0 mm
10:37 PM 64.6°F18.1°C 55.8°F13.2°C 73% 0.9 mph N1.4 kmh N -- 30.18 in1022.0 mb - 0.00 in0.0 mm 0.00 in0.0 mm
10:42 PM 64.6°F18.1°C 55.8°F13.2°C 73% Calm Calm -- 30.18 in1022.0 mb - 0.00 in0.0 mm 0.00 in0.0 mm
10:47 PM 64.2°F17.9°C 55.4°F13.0°C 73% Calm Calm -- 30.18 in1022.0 mb - 0.00 in0.0 mm 0.00 in0.0 mm
10:52 PM 64.0°F17.8°C 55.2°F12.9°C 73% Calm Calm -- 30.18 in1022.0 mb - 0.00 in0.0 mm 0.00 in0.0 mm
10:57 PM 63.9°F17.7°C 55.0°F12.8°C 73% Calm Calm -- 30.17 in1021.7 mb - 0.00 in0.0 mm 0.00 in0.0 mm
11:02 PM 63.7°F17.6°C 55.2°F12.9°C 74% Calm Calm -- 30.18 in1022.0 mb - 0.00 in0.0 mm 0.00 in0.0 mm
11:07 PM 63.7°F17.6°C 55.2°F12.9°C 74% Calm Calm -- 30.18 in1022.0 mb - 0.00 in0.0 mm 0.00 in0.0 mm
11:12 PM 63.5°F17.5°C 55.4°F13.0°C 75% Calm Calm -- 30.17 in1021.7 mb - 0.00 in0.0 mm 0.00 in0.0 mm
11:17 PM 63.3°F17.4°C 55.2°F12.9°C 75% Calm Calm -- 30.18 in1022.0 mb - 0.00 in0.0 mm 0.00 in0.0 mm
11:22 PM 63.1°F17.3°C 55.4°F13.0°C 76% Calm Calm -- 30.17 in1021.7 mb - 0.00 in0.0 mm 0.00 in0.0 mm
11:27 PM 63.1°F17.3°C 55.4°F13.0°C 76% Calm Calm -- 30.17 in1021.7 mb - 0.00 in0.0 mm 0.00 in0.0 mm
11:32 PM 63.0°F17.2°C 55.6°F13.1°C 77% Calm Calm -- 30.17 in1021.7 mb - 0.00 in0.0 mm 0.00 in0.0 mm
11:37 PM 63.0°F17.2°C 55.6°F13.1°C 77% Calm Calm -- 30.17 in1021.7 mb - 0.00 in0.0 mm 0.00 in0.0 mm
11:42 PM 62.8°F17.1°C 55.4°F13.0°C 77% Calm Calm -- 30.17 in1021.7 mb - 0.00 in0.0 mm 0.00 in0.0 mm
11:47 PM 63.0°F17.2°C 55.6°F13.1°C 77% Calm Calm -- 30.17 in1021.7 mb - 0.00 in0.0 mm 0.00 in0.0 mm
11:52 PM 63.0°F17.2°C 55.9°F13.3°C 78% Calm Calm -- 30.17 in1021.7 mb - 0.00 in0.0 mm 0.00 in0.0 mm
11:57 PM 63.0°F17.2°C 55.9°F13.3°C 78% Calm Calm -- 30.17 in1021.7 mb - 0.00 in0.0 mm 0.00 in0.0 mm